MyFlightRoute - Storm Chaser


To sort multiple columns, hold SHIFT key while clicking column header

ICAOVisibilityWindSpeedGustCeilingWeatherTempDew PointSpreadFlight CategoryMETAR
KABQ10.00817 1100030.6011.7018.9VFRKABQ 032152Z 03008G17KT 10SM SCT080CB BKN110 BKN150 31/12 A3013 RMK AO2 LTG DSNT NW SLP112 CB NW-NE MOV E T03060117
KAMA10.001320 29.408.9020.5VFRKAMA 032153Z 11013G20KT 10SM CLR 29/09 A3011 RMK AO2 SLP148 T02940089
KAPA10.0016 700021.7012.209.5VFRKAPA 032153Z 24016KT 10SM BKN070 BKN120 OVC200 22/12 A3021 RMK AO2 LTG DSNT E-SW SLP167 CB DSNT S MOV NW SHRA DSNT S MOV NW T02170122
KASE10.00917 5500LIGHT RAIN 15.6011.104.5VFRKASE 032227Z 36009G17KT 10SM -RA SCT044 BKN055 OVC080 16/11 A3038 RMK AO2 PK WND 36028/2213 LTG DSNT SE RAB16 P0003 T01560111
KBFI10.006 27.2014.4012.8VFRKBFI 032153Z 29006KT 10SM CLR 27/14 A3004 RMK AO2 SLP171 T02720144
KBFL7.008 36.107.2028.9VFRKBFL 032154Z 29008KT 7SM CLR 36/07 A2990 RMK AO2 SLP118 T03610072
KBIL10.007 11000LIGHT RAIN 19.4012.806.6VFRKBIL 032214Z 31007KT 10SM -RA FEW020 SCT055 OVC110 19/13 A3016 RMK AO2 LTG DSNT SE TSE14 CB DSNT SE P0000 T01940128
KBOI9.005 35.0010.0025VFRKBOI 032153Z 16005KT 9SM CLR 35/10 A3008 RMK AO2 SLP149 T03500100
KBUR10.006 35.608.3027.3VFRKBUR 032153Z 19006KT 10SM CLR 36/08 A2990 RMK AO2 SLP108 T03560083 $
KBZN4.006 HAZE 28.9012.2016.7MVFRKBZN 032156Z VRB06KT 4SM HZ CLR 29/12 A3020 RMK AO2 SLP184 T02890122
KCMA10.009 26.7013.3013.4VFRKCMA 032155Z 26009KT 10SM CLR 27/13 A2993 RMK AO2 SLP142 T02670133 $
KCNO10.0013 39.407.2032.2VFRKCNO 032153Z 26013KT 10SM CLR 39/07 A2989 RMK AO2 SLP112 T03940072
KCOS10.0020 1300023.9010.6013.3VFRKCOS 032154Z 03020KT 10SM SCT090 BKN130 BKN220 24/11 A3022 RMK AO2 LTG DSNT E AND S SLP149 VCSH S-SW CB DSNT E AND S MOV N T02390106
KCPR10.001525 8000THUNDERSTORM IN THE VICINITY 25.6010.0015.6VFRKCPR 032226Z 03015G25KT 10SM VCTS BKN080 BKN110 26/10 A3016 RMK AO2 WSHFT 2209 LTG DSNT S TSB11E26 T02560100
KCRQ10.004 22.2016.705.5VFRKCRQ 032153Z VRB04KT 10SM CLR 22/17 A2992 RMK AO2 SLP129 T02220167
KDEN10.007 1500028.3011.1017.2VFRKDEN 032153Z 33007KT 10SM SCT100 BKN150 BKN220 28/11 A3017 RMK AO2 LTG DSNT E-S SLP132 T02830111
KEGE7.001217 7000RAIN 18.3013.305VFRKEGE 032156Z 36012G17KT 7SM RA BKN070 18/13 A3036 RMK AO2 LTG DSNT S TSB17E42RAB47 SLP231 T01830133 PNO $
KELP10.000 31.7013.9017.8VFRKELP 032151Z 00000KT 10SM FEW070 32/14 A3007 RMK AO2 SLP105 T03170139
KEMT10.008 35.0012.0023VFRKEMT 032151Z 21008KT 10SM CLR 35/12 A2988
KEUG10.005 2000030.0015.0015VFRKEUG 032054Z 01005KT 10SM BKN200 30/15 A3004 RMK AO2 SLP171 FU BKN200 T03000150 56013
KFAT10.008 37.807.8030VFRKFAT 032153Z 32008KT 10SM FEW080 38/08 A2990 RMK AO2 SLP120 MTNS OBSC FU HZ DSNT N-E-S T03780078
KFLG10.00414 28.901.7027.2VFRKFLG 032157Z VRB04G14KT 10SM CLR 29/02 A3035 RMK AO2 SLP164 T02890017
KFMN10.001530 900032.208.3023.9VFRKFMN 032153Z 29015G30KT 10SM BKN090 32/08 A3013 RMK AO2 PK WND 28031/2102 LTG DSNT E SLP134 T03220083
KFUL10.007 33.3012.8020.5VFRKFUL 032153Z 21007KT 10SM CLR 33/13 A2988 RMK AO2 SLP117 T03330128
KGCN10.000 30.005.6024.4VFRKGCN 032154Z 00000KT 10SM CLR 30/06 A3032 RMK AO2 SLP158 T03000056
KGEG3.003 5000SMOKE 35.007.8027.2MVFRKGEG 032153Z VRB03KT 3SM FU BKN050 BKN065 35/08 A3006 RMK AO2 SFC VIS 4 SLP155 FU BKN050 T03500078
KGJT10.0013 31.709.4022.3VFRKGJT 032153Z 30013KT 10SM FEW085 32/09 A3013 RMK AO2 SLP128 T03170094
KGPI2.507 3500SMOKE 30.6015.0015.6IFRKGPI 032155Z 18007KT 2 1/2SM FU BKN035 31/15 A3008 RMK AO2 SLP164 T03060150
KHHR10.0010 24.4013.9010.5VFRKHHR 032153Z 28010KT 10SM CLR 24/14 A2992 RMK AO2 SLP129 T02440139
KHLN5.001320 HAZE 32.808.3024.5MVFRKHLN 032153Z 29013G20KT 5SM HZ FEW090 33/08 A3012 RMK AO2 SLP175 T03280083
KHND10.004 41.707.2034.5VFRKHND 032156Z 04004KT 10SM CLR 42/07 A2999 RMK AO2 SLP132 T04170072
KIFP10.0010 46.007.0039VFRKIFP 032150Z 33010KT 10SM SCT140 46/07 A2978
KINS10.006 39.502.2037.3VFRKINS 032158Z AUTO 35006KT 10SM CLR 40/02 A3002 RMK AO2 SLP108 T03950022 $
KJAC10.001217 24.407.8016.6VFRKJAC 032156Z 28012G17KT 10SM FEW080 24/08 A3033 RMK AO2 SLP208 T02440078
KLAS10.006 42.806.7036.1VFRKLAS 032156Z VRB06KT 10SM FEW120 43/07 A2995 RMK AO2 SLP106 T04280067
KLAX10.0016 22.2014.407.8VFRKLAX 032153Z 26016KT 10SM FEW080 22/14 A2992 RMK AO2 SLP130 T02220144 $
KLGB10.009 30.0014.4015.6VFRKLGB 032153Z 28009KT 10SM CLR 30/14 A2990 RMK AO2 SLP123 T03000144
KLSV10.004 42.505.8036.7VFRKLSV 032158Z AUTO 21004KT 10SM CLR 43/06 A2990 RMK AO2 SLP094 T04250058 $
KMFR7.000 SMOKE 33.9010.0023.9VFRKMFR 032153Z 00000KT 7SM FU CLR 34/10 A2998 RMK AO2 SLP138 T03390100
KMHV10.009 40.000.0040VFRKMHV 032200Z AUTO 14009KT 10SM CLR 40/00 A3001 RMK A01
KOAK10.0012 21.1013.307.8VFRKOAK 032153Z 29012KT 10SM FEW010 21/13 A3000 RMK AO2 SLP158 T02110133
KOLM10.005 27.8013.9013.9VFRKOLM 032154Z 03005KT 10SM CLR 28/14 A3004 RMK AO2 SLP172 T02780139
KONT10.001117 39.407.2032.2VFRKONT 032153Z COR 25011G17KT 10SM FEW120 39/07 A2989 RMK AO2 SLP098 RSG FU DSNT NW T03940072
KMRY10.009 19.4012.207.2VFRKMRY 032203Z 32009KT 10SM FEW008 19/12 A3002 RMK AO2 T01940122
KMSO4.004 HAZE 32.2011.7020.5MVFRKMSO 032153Z AUTO VRB04KT 4SM HZ CLR 32/12 A3012 RMK AO2 SLP173 T03220117
KMYF10.007 27.8015.6012.2VFRKMYF 032153Z 29007KT 10SM CLR 28/16 A2992 RMK AO2 SLP128 T02780156
KNYL7.008 45.6010.0035.6VFRKNYL 032157Z 28008KT 7SM CLR 46/10 A2975 RMK AO2 SLP071 T04560100 $
KOTH10.002128 17.2012.804.4VFRKOTH 032156Z 35021G28KT 10SM CLR 17/13 A3010 RMK AO2 PK WND 35028/2156 SLP193 T01720128
KOXR10.0014 21.7014.407.3VFRKOXR 032151Z 28014KT 10SM CLR 22/14 A2993 RMK AO2 SLP135 T02170144
KPAE10.007 24.4015.009.4VFRKPAE 032153Z 27007KT 10SM CLR 24/15 A3007 RMK AO2 SLP179 T02440150
KPDX10.0010 30.6013.3017.3VFRKPDX 032153Z 29010KT 10SM FEW150 SCT200 31/13 A3001 RMK AO2 SLP160 FU SCT200 ACC ACSL DSNT W-N T03060133
KPHX10.000 42.8011.1031.7VFRKPHX 032151Z 00000KT 10SM FEW100 43/11 A2980 RMK AO2 SLP067 T04280111
KPOC10.0013 36.008.0028VFRKPOC 032147Z 25013KT 10SM CLR 36/08 A2992
KPRC10.000 32.805.6027.2VFRKPRC 032153Z 00000KT 10SM CLR 33/06 A3019 RMK AO2 SLP130 T03280056
KPSC5.009 HAZE 36.7020.0016.7MVFRKPSC 032153Z 33009KT 5SM HZ CLR 37/20 A2989 RMK AO2 SLP118 T03670200
KPSP10.005 47.2018.9028.3VFRKPSP 032153Z AUTO VRB05KT 10SM CLR 47/19 A2978 RMK AO2 SLP079 T04720189
KRAL10.004 39.402.8036.6VFRKRAL 032153Z VRB04KT 10SM CLR 39/03 A2988 RMK AO2 SLP101 T03940028
KRDD10.005 SMOKE 38.900.0038.9VFRKRDD 032153Z VRB05KT 10SM FU CLR 39/00 A2991 RMK AO2 SLP121 T03890000
KRIV10.007 39.104.5034.6VFRKRIV 032158Z AUTO 31007KT 10SM CLR 39/05 A2992 RMK AO2 SLP115 T03910045
KRNM10.001119 35.006.1028.9VFRKRNM 032153Z 29011G19KT 10SM CLR 35/06 A2994 RMK AO2 SLP122 T03500061
KRNO10.007 36.701.1035.6VFRKRNO 032155Z 15007KT 030V200 10SM FEW110 37/01 A3012 RMK AO2 SLP133 T03670011
KSAC10.005 35.0010.6024.4VFRKSAC 032153Z VRB05KT 10SM CLR 35/11 A2992 RMK AO2 SLP130 T03500106
KSAN10.0011 24.4017.207.2VFRKSAN 032151Z 29011KT 10SM FEW007 FEW040 24/17 A2994 RMK AO2 SLP137 T02440172
KSBA10.007 24.4013.3011.1VFRKSBA 032153Z 25007KT 10SM CLR 24/13 A2992 RMK AO2 SLP133 T02440133 $
KSBD10.008 41.001.0040VFRKSBD 032154Z 27008KT 10SM CLR 41/01 A2990
KSBP10.0011 25.0013.3011.7VFRKSBP 032156Z 31011KT 10SM CLR 25/13 A2997 RMK AO2 SLP145 T02500133
KSDM10.008 28.3012.2016.1VFRKSDM 032153Z 30008KT 10SM CLR 28/12 A2992 RMK AO2 SLP126 T02830122
KSEA10.007 26.7013.9012.8VFRKSEA 032153Z 26007KT 10SM SCT150 SCT250 27/14 A3006 RMK AO2 SLP181 T02670139
KSEE10.0010 34.0010.0024VFRKSEE 032147Z 29010KT 10SM SKC 34/10 A2990
KSFO10.0018 19.4011.707.7VFRKSFO 032156Z 30018KT 10SM FEW008 19/12 A2998 RMK AO2 SLP151 T01940117 $
KSJC10.009 25.0012.2012.8VFRKSJC 032153Z 32009KT 10SM CLR 25/12 A2998 RMK AO2 SLP150 T02500122
KSLC10.001019 30.0011.1018.9VFRKSLC 032154Z 32010G19KT 290V360 10SM FEW075 30/11 A3021 RMK AO2 SLP176 TCU DSNT NE AND E T03000111
KSMF10.005 36.1010.6025.5VFRKSMF 032153Z 06005KT 10SM CLR 36/11 A2991 RMK AO2 SLP128 T03610106
KSMO10.009 23.3013.909.4VFRKSMO 032151Z 23009KT 10SM CLR 23/14 A2992 RMK AO2 SLP129 T02330139
KSMX9.0010 21.1013.307.8VFRKSMX 032151Z 30010KT 9SM CLR 21/13 A2999 RMK AO2 SLP158 T02110133
KSNA10.0010 27.8013.9013.9VFRKSNA 032153Z 21010KT 10SM FEW048 28/14 A2991 RMK AO2 SLP126 T02780139
KSUN10.009 28.0014.0014VFRKSUN 032153Z 13009KT 10SM SCT120 28/14 A3027
KTOA10.0018 23.0014.009VFRKTOA 032149Z 27018KT 10SM SKC 23/14 A2991
KTPH10.0010 35.601.1034.5VFRKTPH 032156Z AUTO 18010KT 10SM CLR 36/01 A3023 RMK AO2 SLP141 T03560011
KTUS10.007 38.9015.0023.9VFRKTUS 032153Z 30007KT 260V340 10SM CLR 39/15 A2996 RMK AO2 SLP088 T03890150
KVCV10.00613 39.002.0037VFRKVCV 022345Z AUTO 16006G13KT 10SM CLR 39/02 A3004 RMK DA6100
KVGT10.000 42.207.2035VFRKVGT 032153Z 10SM CLR 42/07 A2993 RMK AO2 SLP118 T04220072 PNO
KVNY10.007 37.806.7031.1VFRKVNY 032151Z 13007KT 10SM CLR 38/07 A2989 RMK AO2 SLP109 T03780067 $
KWHP10.007 36.007.0029VFRKWHP 032155Z 09007KT 10SM SKC 36/07 A2994
KWJF10.003 41.10-2.2043.3VFRKWJF 032156Z VRB03KT 10SM CLR 41/M02 A2996 RMK AO2 SLP118 T04111022
KYKM7.000 37.2010.6026.6VFRKYKM 032153Z 00000KT 7SM CLR 37/11 A2995 RMK AO2 SLP130 T03720106